Time;durP1;ratioP1;P1;durP2;ratioP2;P2;SDS_P1;SDS_P2;PMS_P1;PMS_P2;Temp;Humidity;BMP_temperature;BMP_pressure;BME280_temperature;BME280_humidity;BME280_pressure;Samples;Min_cycle;Max_cycle;Signal;HPM_P1;HPM_P2
2022/08/02 00:00:20;;;;;;;;;;;13.10;99.90;;;;;;5081847;28;19931;-60
2022/08/02 00:02:46;;;;;;;;;;;13.20;99.90;;;;;;5089398;28;20398;-60
2022/08/02 00:05:12;;;;;;;;;;;13.20;99.90;;;;;;5055782;28;19970;-59
2022/08/02 00:07:38;;;;;;;;;;;13.20;99.90;;;;;;5075016;28;20015;-60
2022/08/02 00:10:06;;;;;;;;;;;13.20;99.90;;;;;;5094944;28;20061;-59
2022/08/02 00:12:32;;;;;;;;;;;13.10;99.90;;;;;;5076463;28;19959;-60
2022/08/02 00:14:58;;;;;;;;;;;13.10;99.90;;;;;;5074496;28;19935;-60
2022/08/02 00:17:23;;;;;;;;;;;13.00;99.90;;;;;;5073034;28;19927;-60
2022/08/02 00:19:49;;;;;;;;;;;13.00;99.90;;;;;;5074113;28;19920;-60
2022/08/02 00:22:15;;;;;;;;;;;13.10;99.90;;;;;;5074448;28;19982;-60
2022/08/02 00:24:40;;;;;;;;;;;13.10;99.90;;;;;;5073584;28;19927;-60
2022/08/02 00:27:07;;;;;;;580.20;532.50;;;13.10;99.90;;;;;;5087901;28;20328;-60
2022/08/02 00:29:34;;;;;;;;;;;13.10;99.90;;;;;;5076555;28;19968;-60
2022/08/02 00:32:00;;;;;;;;;;;13.10;99.90;;;;;;5093768;28;19959;-60
2022/08/02 00:34:25;;;;;;;;;;;13.10;99.90;;;;;;5075437;28;19967;-59
2022/08/02 00:36:51;;;;;;;;;;;13.10;99.90;;;;;;5094461;28;20420;-60
2022/08/02 00:39:17;;;;;;;;;;;13.10;99.90;;;;;;5093677;28;19920;-59
2022/08/02 00:41:45;;;;;;;;;;;13.10;99.90;;;;;;5092009;28;19972;-60
2022/08/02 00:44:11;;;;;;;;;;;13.10;99.90;;;;;;5083192;28;19927;-60
2022/08/02 00:46:37;;;;;;;;;;;13.10;99.90;;;;;;5072686;28;19920;-60
2022/08/02 00:49:02;;;;;;;;;;;13.10;99.90;;;;;;5073556;28;19931;-59
2022/08/02 00:51:28;;;;;;;;;;;13.10;99.90;;;;;;5073937;28;20278;-60
2022/08/02 00:53:54;;;;;;;;;;;13.20;99.90;;;;;;5089884;28;19924;-59
2022/08/02 00:56:19;;;;;;;;;;;13.10;99.90;;;;;;5093698;28;19924;-60
2022/08/02 00:58:45;;;;;;;;;;;13.10;99.90;;;;;;5093997;28;20331;-59
2022/08/02 01:01:10;;;;;;;;;;;13.00;99.90;;;;;;5092562;28;20263;-60
2022/08/02 01:03:36;;;;;;;;;;;13.00;99.90;;;;;;5063031;28;20342;-59
2022/08/02 01:06:02;;;;;;;;;;;12.90;99.90;;;;;;5073671;28;20278;-59
2022/08/02 01:08:27;;;;;;;;;;;12.80;99.90;;;;;;5072602;28;19926;-59
2022/08/02 01:10:53;;;;;;;;;;;12.80;99.90;;;;;;5080810;28;19924;-59
2022/08/02 01:13:19;;;;;;;;;;;12.70;99.90;;;;;;5073609;28;19924;-60
2022/08/02 01:15:48;;;;;;;;;;;12.70;99.90;;;;;;5071380;28;19924;-59
2022/08/02 01:18:18;;;;;;;;;;;12.70;99.90;;;;;;5072943;28;20294;-59
2022/08/02 01:20:54;;;;;;;;;;;12.60;99.90;;;;;;5092517;28;20432;-59
2022/08/02 01:23:28;;;;;;;;;;;12.70;99.90;;;;;;5093599;28;20006;-59
2022/08/02 01:26:01;;;;;;;;;;;12.70;99.90;;;;;;5086417;28;19928;-59
2022/08/02 01:28:27;;;;;;;;;;;12.70;99.90;;;;;;5082554;28;19966;-59
2022/08/02 01:31:02;;;;;;;;;;;12.70;99.90;;;;;;5093611;28;19924;-59
2022/08/02 01:33:34;;;;;;;;;;;12.70;99.90;;;;;;5093270;28;19920;-59
2022/08/02 01:36:00;;;;;;;;;;;12.70;99.90;;;;;;5075678;28;19931;-60
2022/08/02 01:38:34;;;;;;;;;;;12.70;99.90;;;;;;5093433;28;19923;-60
2022/08/02 01:41:01;;;;;;;;;;;12.60;99.90;;;;;;5081371;28;19968;-59
2022/08/02 01:43:28;;;;;;;;;;;12.60;99.90;;;;;;5054295;28;19979;-60
2022/08/02 01:45:55;;;;;;;;;;;12.60;99.90;;;;;;5081024;28;20003;-59
2022/08/02 01:48:22;;;;;;;;;;;12.60;99.90;;;;;;5093193;28;20358;-60
2022/08/02 01:50:48;;;;;;;;;;;12.70;99.90;;;;;;5081540;28;19989;-59
2022/08/02 01:53:14;;;;;;;;;;;12.50;99.90;;;;;;5073000;28;19939;-59
2022/08/02 01:55:42;;;;;;;;;;;12.50;99.90;;;;;;5088782;28;19924;-59
2022/08/02 01:58:08;;;;;;;;;;;12.50;99.90;;;;;;5093304;28;20009;-60
2022/08/02 02:00:38;;;;;;;;;;;12.50;99.90;;;;;;5093323;28;19928;-60
2022/08/02 02:03:08;;;;;;;661.60;600.25;;;12.50;99.90;;;;;;5087389;28;19919;-60
2022/08/02 02:05:35;;;;;;;707.17;642.22;;;12.40;99.90;;;;;;5092528;28;20090;-59
2022/08/02 02:08:03;;;;;;;964.13;676.35;;;12.40;99.90;;;;;;5096271;28;20072;-59
2022/08/02 02:10:31;;;;;;;736.17;673.20;;;12.30;99.90;;;;;;5095699;28;20131;-59
2022/08/02 02:13:01;;;;;;;747.22;673.95;;;12.30;99.90;;;;;;5082060;28;20040;-59
2022/08/02 02:15:29;;;;;;;671.22;612.85;;;12.30;99.90;;;;;;5096669;28;20040;-59
2022/08/02 02:17:57;;;;;;;1025.40;729.42;;;12.30;99.90;;;;;;5095695;28;20047;-59
2022/08/02 02:20:23;;;;;;;574.47;528.47;;;12.30;99.90;;;;;;5095887;28;20048;-59
2022/08/02 02:22:49;;;;;;;629.78;575.90;;;12.20;99.90;;;;;;5078275;28;20055;-60
2022/08/02 02:25:18;;;;;;;559.88;513.33;;;12.20;99.90;;;;;;5081650;28;20124;-59
2022/08/02 02:27:59;;;;;;;635.80;580.15;;;12.20;99.90;;;;;;5038367;28;20062;-59
2022/08/02 02:30:27;;;;;;;604.83;554.15;;;12.20;99.90;;;;;;5077410;28;20063;-59
2022/08/02 02:32:56;;;;;;;599.50;543.88;;;12.30;99.90;;;;;;5077319;28;20044;-59
2022/08/02 02:35:26;;;;;;;687.40;626.55;;;12.30;99.90;;;;;;5096012;28;20058;-60
2022/08/02 02:37:53;;;;;;;524.90;480.90;;;12.30;99.90;;;;;;5096303;28;20040;-59
2022/08/02 02:40:20;;;;;;;1046.50;749.05;;;12.20;99.90;;;;;;5075364;28;20044;-60
2022/08/02 02:42:47;;;;;;;704.53;643.63;;;12.20;99.90;;;;;;5076097;28;20045;-59
2022/08/02 02:45:15;;;;;;;646.58;585.45;;;12.20;99.90;;;;;;5074653;28;20107;-60
2022/08/02 02:47:41;;;;;;;1021.60;722.60;;;12.20;99.90;;;;;;5063843;28;20046;-59
2022/08/02 02:50:08;;;;;;;612.75;562.60;;;12.10;99.90;;;;;;5078721;28;20052;-59
2022/08/02 02:52:35;;;;;;;625.55;566.53;;;12.10;99.90;;;;;;5075003;28;20048;-59
2022/08/02 02:55:02;;;;;;;997.28;704.72;;;12.10;99.90;;;;;;5075497;28;20040;-60
2022/08/02 02:57:30;;;;;;;659.67;604.13;;;12.10;99.90;;;;;;5075349;28;20127;-59
2022/08/02 02:59:56;;;;;;;642.17;588.63;;;12.10;99.90;;;;;;5074631;28;20482;-60
2022/08/02 03:02:22;;;;;;;964.75;675.10;;;12.00;99.90;;;;;;5072872;28;20071;-60
2022/08/02 03:04:48;;;;;;;935.72;647.85;;;12.10;99.90;;;;;;5059938;28;20475;-60
2022/08/02 03:07:14;;;;;;;998.58;697.75;;;12.10;99.90;;;;;;5076516;28;20056;-60
2022/08/02 03:09:40;;;;;;;608.10;544.70;;;12.10;99.90;;;;;;5095472;28;20051;-60
2022/08/02 03:12:08;;;;;;;572.25;515.90;;;12.10;99.90;;;;;;5074088;28;20387;-60
2022/08/02 03:14:38;;;;;;;1630.43;867.38;;;12.20;99.90;;;;;;5084054;28;20127;-60
2022/08/02 03:17:04;;;;;;;564.58;515.97;;;12.10;99.90;;;;;;5094321;28;20052;-59
2022/08/02 03:19:30;;;;;;;1635.22;867.35;;;12.10;99.90;;;;;;5095618;28;20059;-60
2022/08/02 03:21:56;;;;;;;1635.63;872.75;;;12.10;99.90;;;;;;5094653;28;20051;-60
2022/08/02 03:24:22;;;;;;;546.08;494.60;;;12.10;99.90;;;;;;5076137;28;20151;-59
2022/08/02 03:26:48;;;;;;;575.40;518.05;;;12.10;99.90;;;;;;5081040;28;20123;-59
2022/08/02 03:29:13;;;;;;;1999.90;999.90;;;12.00;99.90;;;;;;5074384;28;20122;-59
2022/08/02 03:31:42;;;;;;;1647.15;882.67;;;12.00;99.90;;;;;;5078691;28;20101;-60
2022/08/02 03:34:08;;;;;;;1623.82;862.28;;;12.00;99.90;;;;;;5095250;28;20145;-59
2022/08/02 03:36:35;;;;;;;1660.70;894.83;;;12.00;99.90;;;;;;5076409;28;20048;-60
2022/08/02 03:39:02;;;;;;;1641.43;877.50;;;11.90;99.90;;;;;;5094861;28;20052;-60
2022/08/02 03:41:29;;;;;;;1653.03;889.55;;;11.90;99.90;;;;;;5091254;28;20047;-60
2022/08/02 03:43:55;;;;;;;1245.13;722.88;;;11.90;99.90;;;;;;5094715;28;20055;-60
2022/08/02 03:46:23;;;;;;;513.45;468.52;;;11.80;99.90;;;;;;5094268;28;20087;-59
2022/08/02 03:48:50;;;;;;;1639.00;877.28;;;11.80;99.90;;;;;;5075822;28;20525;-59
2022/08/02 03:51:18;;;;;;;1658.50;893.28;;;11.80;99.90;;;;;;5094883;28;20052;-59
2022/08/02 03:53:44;;;;;;;539.30;492.75;;;11.80;99.90;;;;;;5076375;28;20428;-60
2022/08/02 03:56:10;;;;;;;639.08;575.33;;;11.80;99.90;;;;;;5075809;28;20056;-59
2022/08/02 03:58:36;;;;;;;1646.40;882.38;;;11.90;99.90;;;;;;5093909;28;20052;-60
2022/08/02 04:01:02;;;;;;;1657.70;892.55;;;11.90;99.90;;;;;;5094296;28;20501;-59
2022/08/02 04:03:28;;;;;;;570.50;515.42;;;11.90;99.90;;;;;;5082319;28;20037;-59
2022/08/02 04:05:54;;;;;;;480.48;438.23;;;12.00;99.90;;;;;;5074281;28;20120;-59
2022/08/02 04:08:20;;;;;;;509.77;460.40;;;12.00;99.90;;;;;;5089239;28;20564;-59
2022/08/02 04:13:33;;;;;;;571.38;519.58;;;12.10;99.90;;;;;;5074197;28;20049;-60
2022/08/02 04:16:05;;;;;;;524.17;478.38;;;12.10;99.90;;;;;;5061257;28;20474;-59
2022/08/02 04:18:39;;;;;;;465.67;420.70;;;12.10;99.90;;;;;;5093727;28;20075;-60
2022/08/02 04:21:06;;;;;;;405.05;368.70;;;12.10;99.90;;;;;;5075882;28;20520;-60
2022/08/02 04:23:35;;;;;;;464.40;417.13;;;12.20;99.90;;;;;;5093254;28;20044;-60
2022/08/02 04:26:03;;;;;;;428.45;390.70;;;12.20;99.90;;;;;;5085937;28;20049;-59
2022/08/02 04:28:30;;;;;;;581.20;532.13;;;12.20;99.90;;;;;;5055484;28;20075;-59
2022/08/02 04:30:57;;;;;;;721.15;659.78;;;12.20;99.90;;;;;;5072194;28;20479;-59
2022/08/02 04:33:24;;;;;;;839.20;759.83;;;12.30;99.90;;;;;;5058559;28;20048;-59
2022/08/02 04:35:50;;;;;;;641.83;592.08;;;12.30;99.90;;;;;;5093806;28;20053;-59
2022/08/02 04:38:16;;;;;;;782.92;717.30;;;12.40;99.90;;;;;;5092515;28;20063;-59
2022/08/02 04:40:51;;;;;;;645.42;597.97;;;12.50;99.90;;;;;;5084029;28;20171;-59
2022/08/02 04:43:17;;;;;;;681.03;628.00;;;12.60;99.90;;;;;;5075126;28;20115;-59
2022/08/02 04:45:46;;;;;;;630.90;584.15;;;12.60;99.90;;;;;;5071044;28;20048;-59
2022/08/02 04:48:11;;;;;;;807.80;737.63;;;12.60;99.90;;;;;;5072726;28;20040;-59
2022/08/02 04:50:37;;;;;;;667.28;617.17;;;12.70;99.90;;;;;;5072101;28;20040;-59
2022/08/02 04:53:03;;;;;;;723.38;664.22;;;12.70;99.90;;;;;;5072206;28;20041;-59
2022/08/02 04:55:28;;;;;;;691.13;634.25;;;12.70;99.90;;;;;;5073419;28;20509;-59
2022/08/02 04:57:56;;;;;;;854.83;775.78;;;12.80;99.90;;;;;;5073304;28;20114;-59
2022/08/02 05:00:23;;;;;;;767.78;700.30;;;12.80;99.90;;;;;;5078848;28;20115;-59
2022/08/02 05:02:49;;;;;;;755.28;693.00;;;12.90;99.90;;;;;;5087679;28;20032;-59
2022/08/02 05:05:15;;;;;;;714.95;659.58;;;12.90;99.90;;;;;;5072762;28;20483;-59
2022/08/02 05:07:41;;;;;;;767.55;708.55;;;13.00;99.90;;;;;;5072163;28;20088;-60
2022/08/02 05:10:07;;;;;;;699.78;645.35;;;13.00;99.90;;;;;;5086835;28;20470;-59
2022/08/02 05:12:32;;;;;;;713.38;654.65;;;13.10;99.90;;;;;;5071826;28;20090;-59
2022/08/02 05:14:58;;;;;;;701.53;646.90;;;13.10;99.90;;;;;;5071751;28;20045;-59
2022/08/02 05:17:24;;;;;;;723.03;665.92;;;13.20;99.90;;;;;;5072524;28;20742;-59
2022/08/02 05:19:50;;;;;;;745.78;689.38;;;13.20;99.90;;;;;;5071959;28;20417;-59
2022/08/02 05:22:15;;;;;;;717.33;659.75;;;13.20;99.90;;;;;;5072664;28;20106;-59
2022/08/02 05:24:41;;;;;;;797.38;725.00;;;13.30;99.90;;;;;;5054807;28;20045;-59
2022/08/02 05:27:07;;;;;;;724.20;666.85;;;13.40;99.90;;;;;;5072129;28;20397;-59
2022/08/02 05:29:33;;;;;;;719.95;665.05;;;13.40;99.90;;;;;;5092902;28;20110;-59
2022/08/02 05:31:58;;;;;;;763.00;700.20;;;13.50;99.90;;;;;;5092694;28;20052;-60
2022/08/02 05:34:24;;;;;;;742.88;687.40;;;13.60;99.90;;;;;;5092290;28;20089;-59
2022/08/02 05:36:50;;;;;;;779.95;715.38;;;13.70;99.90;;;;;;5076633;28;20135;-59
2022/08/02 05:39:16;;;;;;;772.88;710.50;;;13.90;99.90;;;;;;5072652;28;20063;-59
2022/08/02 05:41:42;;;;;;;757.67;692.33;;;14.00;99.90;;;;;;5071547;28;20490;-59
2022/08/02 05:44:07;;;;;;;793.75;725.17;;;14.10;99.90;;;;;;5072351;28;20032;-60
2022/08/02 05:46:33;;;;;;;770.60;701.00;;;14.20;99.90;;;;;;5072058;28;20495;-60
2022/08/02 05:49:00;;;;;;;857.83;778.10;;;14.30;99.90;;;;;;5071580;28;20094;-59
2022/08/02 05:51:44;;;;;;;836.00;758.90;;;14.40;99.90;;;;;;5072650;28;20559;-59
2022/08/02 05:54:17;;;;;;;812.67;736.92;;;14.60;99.90;;;;;;5084919;28;20052;-60
2022/08/02 05:56:55;;;;;;;590.70;548.78;;;14.70;99.90;;;;;;5092021;28;20056;-59
2022/08/02 05:59:31;;;;;;;620.78;570.13;;;14.80;99.90;;;;;;5092463;28;20055;-59
2022/08/02 06:02:02;;;;;;;656.13;603.95;;;14.90;99.90;;;;;;5091589;28;20389;-60
2022/08/02 06:05:10;;;;;;;609.40;564.35;;;15.00;99.90;;;;;;5055015;28;20045;-60
2022/08/02 06:07:36;;;;;;;540.00;501.35;;;15.10;99.90;;;;;;5072003;28;20041;-60
2022/08/02 06:10:04;;;;;;;524.97;490.73;;;15.30;99.90;;;;;;5070674;28;20394;-60
2022/08/02 06:12:34;;;;;;;710.88;654.15;;;15.40;99.90;;;;;;5073304;28;20118;-59
2022/08/02 06:15:03;;;;;;;612.55;566.25;;;15.50;99.90;;;;;;5071816;28;20048;-59
2022/08/02 06:17:30;;;;;;;616.60;569.88;;;15.70;99.90;;;;;;5071573;28;20441;-60
2022/08/02 06:19:57;;;;;;;575.90;535.13;;;15.80;99.90;;;;;;5078157;28;20501;-59
2022/08/02 06:22:26;;;;;;;523.33;488.02;;;16.00;99.90;;;;;;5091864;28;20056;-60
2022/08/02 06:24:54;;;;;;;598.42;553.88;;;16.10;99.90;;;;;;5091860;28;20055;-60
2022/08/02 06:27:24;;;;;;;609.63;564.20;;;16.20;99.90;;;;;;5074086;28;20045;-60
2022/08/02 06:29:51;;;;;;;545.53;504.73;;;16.20;99.90;;;;;;5071760;28;20497;-59
2022/08/02 06:32:18;;;;;;;517.35;481.80;;;16.30;99.90;;;;;;5071478;28;20080;-60
2022/08/02 06:34:45;;;;;;;485.13;455.42;;;16.40;99.90;;;;;;5072040;28;20398;-59
2022/08/02 06:37:35;;;;;;;543.85;505.13;;;16.50;99.90;;;;;;5072915;28;20060;-60
2022/08/02 06:40:17;;;;;;;536.40;499.10;;;16.70;99.90;;;;;;5089271;28;20047;-60
2022/08/02 06:42:56;;;;;;;490.50;455.13;;;16.90;99.90;;;;;;5072098;28;20045;-60
2022/08/02 06:45:21;;;;;;;494.45;458.20;;;17.00;99.90;;;;;;5049359;28;20410;-60
2022/08/02 06:47:47;;;;;;;406.23;381.88;;;17.10;99.90;;;;;;5051896;28;20055;-60
2022/08/02 06:50:13;;;;;;;417.35;391.98;;;17.10;99.90;;;;;;5072227;28;20071;-60
2022/08/02 06:52:39;;;;;;;480.33;448.05;;;17.20;99.90;;;;;;5073811;28;20391;-60
2022/08/02 06:55:05;;;;;;;382.98;358.80;;;17.20;99.90;;;;;;5090955;28;20048;-60
2022/08/02 06:57:32;;;;;;;363.75;341.75;;;17.40;99.90;;;;;;5075529;28;20049;-60
2022/08/02 07:00:01;;;;;;;491.65;459.63;;;17.40;99.90;;;;;;5074535;28;20068;-60
2022/08/02 07:02:28;;;;;;;419.50;394.02;;;17.50;99.90;;;;;;5075445;28;20091;-60
2022/08/02 07:04:54;;;;;;;427.80;402.10;;;17.60;99.90;;;;;;5075310;28;20056;-60
2022/08/02 07:07:19;;;;;;;462.08;433.17;;;17.70;99.90;;;;;;5056287;28;20044;-60
2022/08/02 07:09:45;;;;;;;489.80;459.00;;;17.80;99.90;;;;;;5074610;28;20049;-60
2022/08/02 07:12:11;;;;;;;378.25;355.70;;;17.90;99.90;;;;;;5084126;28;20055;-60
2022/08/02 07:14:38;;;;;;;476.02;445.05;;;18.00;99.90;;;;;;5074450;28;20052;-60
2022/08/02 07:17:05;;;;;;;430.52;404.08;;;18.10;99.90;;;;;;5075255;28;20055;-60
2022/08/02 07:19:31;;;;;;;470.50;440.17;;;18.30;99.90;;;;;;5074488;28;20438;-60
2022/08/02 07:21:56;;;;;;;369.58;349.67;;;18.50;99.90;;;;;;5074298;28;20123;-60
2022/08/02 07:24:22;;;;;;;370.27;349.27;;;18.60;99.90;;;;;;5056530;28;20052;-60
2022/08/02 07:26:48;;;;;;;367.55;348.08;;;18.80;99.90;;;;;;5060006;28;20128;-60
2022/08/02 07:29:14;;;;;;;326.17;309.60;;;19.00;99.90;;;;;;5053085;28;20091;-59
2022/08/02 07:31:40;;;;;;;370.20;351.33;;;19.10;99.90;;;;;;5060460;28;20494;-60
2022/08/02 07:34:06;;;;;;;357.65;338.77;;;19.30;99.90;;;;;;5075799;28;20120;-60
2022/08/02 07:36:32;;;;;;;288.83;273.77;;;19.40;99.90;;;;;;5074395;28;20055;-60
2022/08/02 07:38:58;;;;;;;353.23;334.50;;;19.50;99.90;;;;;;5060434;28;20429;-60
2022/08/02 07:41:23;;;;;;;245.07;234.00;;;19.70;99.90;;;;;;5078994;28;20102;-60
2022/08/02 07:43:50;;;;;;;351.60;334.27;;;19.70;99.90;;;;;;5088347;28;20501;-60
2022/08/02 07:46:15;;;;;;;431.60;410.25;;;19.90;99.90;;;;;;5074143;28;20505;-60
2022/08/02 07:48:41;;;;;;;586.38;553.25;;;20.00;99.90;;;;;;5057244;28;20045;-60
2022/08/02 07:51:08;;;;;;;598.10;564.45;;;20.00;99.90;;;;;;5052544;28;20088;-60
2022/08/02 07:53:34;;;;;;;650.88;611.58;;;20.10;99.90;;;;;;5053659;28;20106;-60
2022/08/02 07:55:59;;;;;;;634.00;595.95;;;20.20;99.90;;;;;;5052840;28;20053;-60
2022/08/02 07:58:25;;;;;;;582.50;549.05;;;20.30;99.90;;;;;;5050482;28;20060;-60
2022/08/02 08:00:51;;;;;;;535.42;506.40;;;20.40;99.90;;;;;;5052897;28;20045;-60
2022/08/02 08:03:17;;;;;;;482.95;458.35;;;20.40;99.90;;;;;;5053268;28;20033;-60
2022/08/02 08:05:42;;;;;;;504.95;478.55;;;20.60;99.90;;;;;;5054078;28;20718;-60
2022/08/02 08:08:08;;;;;;;474.98;450.38;;;20.70;99.90;;;;;;5052878;28;20048;-60
2022/08/02 08:10:34;;;;;;;387.17;368.10;;;20.80;99.90;;;;;;5051608;28;20064;-60
2022/08/02 08:13:00;;;;;;;379.65;362.27;;;20.90;99.90;;;;;;5052881;28;20506;-60
2022/08/02 08:15:26;;;;;;;315.42;300.58;;;21.00;99.90;;;;;;5042347;28;20479;-60
2022/08/02 08:17:51;;;;;;;368.92;350.92;;;21.10;99.90;;;;;;5049353;28;20056;-60
2022/08/02 08:20:17;;;;;;;363.80;346.58;;;21.20;99.90;;;;;;5046497;28;20048;-60
2022/08/02 08:22:43;;;;;;;473.67;449.13;;;21.40;99.90;;;;;;5047068;28;20072;-60
2022/08/02 08:25:09;;;;;;;400.30;381.05;;;21.60;99.90;;;;;;5048508;28;20052;-60
2022/08/02 08:27:34;;;;;;;414.02;392.95;;;21.70;99.90;;;;;;5049604;28;20048;-60
2022/08/02 08:30:00;;;;;;;415.55;395.00;;;21.90;99.90;;;;;;5051540;28;20041;-60
2022/08/02 08:32:26;;;;;;;509.98;482.33;;;22.00;99.90;;;;;;5056149;28;20036;-60
2022/08/02 08:34:52;;;;;;;399.30;380.80;;;22.00;99.90;;;;;;5060696;28;20407;-61
2022/08/02 08:37:18;;;;;;;465.45;440.25;;;22.10;99.90;;;;;;5053840;28;20082;-61
2022/08/02 08:39:45;;;;;;;450.48;427.20;;;22.30;99.20;;;;;;5052399;28;20260;-60
2022/08/02 08:42:11;;;;;;;337.83;321.60;;;22.40;98.40;;;;;;5052265;28;20056;-61
2022/08/02 08:44:37;;;;;;;430.27;407.92;;;22.50;97.90;;;;;;5052637;28;20068;-61
2022/08/02 08:47:04;;;;;;;502.95;477.52;;;22.60;97.80;;;;;;5053408;28;20119;-61
2022/08/02 08:49:35;;;;;;;555.10;524.90;;;22.70;97.00;;;;;;5053327;28;20044;-61
2022/08/02 08:52:04;;;;;;;566.63;535.00;;;22.80;97.00;;;;;;5051843;28;20091;-61
2022/08/02 08:54:31;;;;;;;728.95;682.60;;;22.90;96.60;;;;;;5053330;28;20041;-61
2022/08/02 08:56:57;;;;;;;687.22;644.90;;;22.90;96.10;;;;;;5052992;28;20076;-61
2022/08/02 08:59:24;;;;;;;707.58;663.03;;;22.90;96.30;;;;;;5034443;28;20049;-61
2022/08/02 09:01:50;;;;;;;807.63;753.60;;;22.90;96.70;;;;;;5053230;28;20045;-61
2022/08/02 09:04:17;;;;;;;746.83;698.42;;;23.00;95.90;;;;;;5041448;28;20041;-60
2022/08/02 09:06:43;;;;;;;768.88;719.28;;;23.00;95.10;;;;;;5051700;28;20134;-61
2022/08/02 09:09:08;;;;;;;696.30;652.75;;;23.00;95.20;;;;;;5052552;28;20129;-60
2022/08/02 09:11:34;;;;;;;690.58;646.90;;;23.10;95.70;;;;;;5051816;28;20053;-60
2022/08/02 09:14:01;;;;;;;762.60;713.17;;;23.20;95.50;;;;;;5051002;28;20044;-61
2022/08/02 09:16:31;;;;;;;771.10;720.30;;;23.40;94.90;;;;;;5050375;28;20049;-61
2022/08/02 09:18:57;;;;;;;747.67;699.85;;;23.40;93.80;;;;;;5051420;28;20045;-61
2022/08/02 09:21:32;;;;;;;705.40;660.45;;;23.40;93.90;;;;;;5052875;28;20088;-60
2022/08/02 09:23:58;;;;;;;706.55;662.20;;;23.30;93.60;;;;;;5053062;28;20121;-60
2022/08/02 09:26:25;;;;;;;755.42;706.35;;;23.40;93.50;;;;;;5051513;28;20064;-61
2022/08/02 09:28:58;;;;;;;715.83;670.65;;;23.50;92.90;;;;;;5053008;28;20116;-61
2022/08/02 09:31:24;;;;;;;646.42;608.13;;;23.50;92.90;;;;;;5052678;28;20053;-60
2022/08/02 09:33:53;;;;;;;628.20;591.15;;;23.60;93.30;;;;;;5051835;28;20041;-61
2022/08/02 09:36:20;;;;;;;689.65;646.42;;;23.70;92.20;;;;;;5034154;28;20045;-61
2022/08/02 09:38:57;;;;;;;711.20;667.10;;;23.90;91.50;;;;;;5052549;28;20387;-61
2022/08/02 09:41:28;;;;;;;798.63;745.20;;;24.10;91.90;;;;;;5051469;28;20456;-61
2022/08/02 09:43:56;;;;;;;822.20;765.65;;;24.30;90.20;;;;;;5051787;28;20041;-61
2022/08/02 09:46:24;;;;;;;723.20;677.10;;;24.30;90.10;;;;;;5052662;28;20049;-61
2022/08/02 09:48:53;;;;;;;837.17;779.45;;;24.50;90.00;;;;;;5051195;28;20053;-61
2022/08/02 09:51:29;;;;;;;739.63;692.03;;;24.70;87.40;;;;;;5049383;28;20033;-60
2022/08/02 09:53:57;;;;;;;782.08;730.33;;;24.70;87.00;;;;;;5051741;28;20099;-61
2022/08/02 09:56:25;;;;;;;749.45;700.70;;;24.80;85.50;;;;;;5051216;28;20055;-61
2022/08/02 09:58:54;;;;;;;758.45;708.50;;;24.90;85.60;;;;;;5052390;28;20076;-60
2022/08/02 10:01:20;;;;;;;719.22;673.70;;;24.90;84.50;;;;;;5049864;28;20041;-61
2022/08/02 10:03:54;;;;;;;725.25;678.50;;;25.00;84.30;;;;;;5050954;28;20049;-61
2022/08/02 10:06:21;;;;;;;650.75;612.92;;;25.00;82.40;;;;;;5051105;28;20052;-61
2022/08/02 10:08:47;;;;;;;393.25;373.67;;;24.80;84.50;;;;;;5051375;28;20501;-61
2022/08/02 10:11:13;;;;;;;695.45;651.30;;;24.80;87.40;;;;;;5051597;28;20033;-61
2022/08/02 10:13:39;;;;;;;684.90;642.28;;;24.80;84.60;;;;;;5052146;28;20049;-61
2022/08/02 10:16:05;;;;;;;626.05;588.95;;;24.80;85.00;;;;;;5051531;28;20124;-61
2022/08/02 10:18:32;;;;;;;682.38;640.17;;;25.00;86.70;;;;;;5051468;28;20521;-61
2022/08/02 10:21:01;;;;;;;636.97;599.20;;;;;;;;;;5047887;28;20562;-60
2022/08/02 10:23:32;;;;;;;679.92;638.08;;;25.70;91.90;;;;;;5043564;28;20041;-61
2022/08/02 10:26:02;;;;;;;668.05;626.53;;;25.60;84.30;;;;;;5042728;28;20111;-61
2022/08/02 10:28:30;;;;;;;676.95;635.35;;;25.70;83.80;;;;;;5030688;28;20104;-61
2022/08/02 10:30:58;;;;;;;685.95;643.00;;;25.80;83.70;;;;;;5045101;28;20056;-61
2022/08/02 10:33:26;;;;;;;660.05;620.83;;;;;;;;;;5055553;28;20068;-61
2022/08/02 10:35:53;;;;;;;561.67;531.60;;;;;;;;;;5055943;28;20083;-61
2022/08/02 10:38:19;;;;;;;656.63;616.92;;;;;;;;;;5054881;28;20037;-61
2022/08/02 10:40:47;;;;;;;653.50;614.67;;;;;;;;;;5055425;28;20064;-60
2022/08/02 10:43:33;;;;;;;598.10;564.15;;;;;;;;;;5055300;28;20048;-61
2022/08/02 10:46:18;;;;;;;646.05;607.85;;;;;;;;;;5072669;28;20068;-61
2022/08/02 10:49:00;;;;;;;571.22;539.42;;;;;;;;;;5073277;28;20080;-61
2022/08/02 10:51:52;;;;;;;446.63;424.70;;;;;;;;;;5063448;28;20134;-61
2022/08/02 10:54:20;;;;;;;522.10;493.25;;;28.50;78.50;;;;;;5064673;28;20109;-61
2022/08/02 10:56:48;;;;;;;564.80;533.28;;;28.60;78.10;;;;;;5062338;28;20410;-61
2022/08/02 10:59:26;;;;;;;433.60;412.38;;;28.70;77.60;;;;;;5056827;28;20048;-60
2022/08/02 11:02:01;;;;;;;287.98;272.42;;;28.60;78.30;;;;;;5064498;28;20036;-60
2022/08/02 11:04:31;;;;;;;298.27;283.20;;;28.20;77.00;;;;;;5071034;28;20044;-60
2022/08/02 11:07:15;;;;;;;230.48;220.45;;;27.90;78.60;;;;;;5075261;28;20048;-60
2022/08/02 11:09:42;;;;;;;310.10;296.10;;;27.90;79.30;;;;;;5072439;28;20449;-60
2022/08/02 11:12:11;;;;;;;350.90;334.45;;;28.20;79.80;;;;;;5066999;28;20390;-60
2022/08/02 11:14:40;;;;;;;407.80;387.83;;;28.50;79.40;;;;;;5074408;28;20076;-60
2022/08/02 11:17:08;;;;;;;195.27;186.02;;;28.70;78.30;;;;;;5055186;28;20067;-61
2022/08/02 11:19:54;;;;;;;348.70;327.90;;;27.80;80.20;;;;;;5054101;28;20044;-61
2022/08/02 11:22:20;;;;;;;471.25;438.83;;;27.20;81.60;;;;;;5072956;28;20044;-61
2022/08/02 11:24:46;;;;;;;181.70;173.02;;;26.60;81.40;;;;;;5075048;28;20046;-61
2022/08/02 11:27:18;;;;;;;510.27;470.90;;;27.40;81.70;;;;;;5074088;28;20055;-60
2022/08/02 11:29:45;;;;;;;572.85;530.40;;;27.50;81.10;;;;;;5074843;28;20048;-61
2022/08/02 11:32:21;;;;;;;402.05;376.13;;;27.20;82.20;;;;;;5074617;28;20047;-61
2022/08/02 11:34:50;;;;;;;192.02;182.43;;;27.40;83.20;;;;;;5074265;28;20499;-61
2022/08/02 11:37:27;;;;;;;262.23;245.00;;;27.50;82.20;;;;;;5074931;28;20049;-60
2022/08/02 11:39:53;;;;;;;312.25;292.65;;;27.40;82.60;;;;;;5072775;28;20127;-61
2022/08/02 11:42:19;;;;;;;172.52;164.43;;;27.00;82.50;;;;;;5074802;28;20128;-60
2022/08/02 11:44:47;;;;;;;337.23;320.73;;;27.50;83.80;;;;;;5074652;28;20048;-60
2022/08/02 11:47:13;;;;;;;445.42;412.33;;;28.00;82.80;;;;;;5070325;28;20059;-60
2022/08/02 11:49:39;;;;;;;598.33;547.83;;;27.60;80.70;;;;;;5064589;28;20071;-61
2022/08/02 11:52:09;;;;;;;622.60;544.92;;;26.90;82.40;;;;;;5073946;28;20110;-61
2022/08/02 11:54:39;;;;;;;194.63;185.23;;;26.60;82.80;;;;;;5056423;28;20107;-60
2022/08/02 11:57:13;;;;;;;491.38;453.92;;;27.00;86.20;;;;;;5061892;28;20052;-61
2022/08/02 11:59:41;;;;;;;386.58;363.17;;;27.10;84.90;;;;;;5069332;28;20501;-61
2022/08/02 12:02:08;;;;;;;216.52;204.98;;;26.70;86.70;;;;;;5072302;28;20469;-61
2022/08/02 12:04:35;;;;;;;394.23;365.13;;;26.70;88.80;;;;;;5070803;28;20044;-61
2022/08/02 12:07:01;;;;;;;130.63;124.72;;;26.50;86.40;;;;;;5073317;28;20460;-61
2022/08/02 12:09:29;;;;;;;270.63;254.23;;;26.50;89.20;;;;;;5069931;28;20080;-60
2022/08/02 12:11:55;;;;;;;283.00;264.48;;;26.40;88.10;;;;;;5071257;28;20053;-60
2022/08/02 12:14:23;;;;;;;185.10;175.20;;;26.00;88.80;;;;;;5072776;28;20037;-61
2022/08/02 12:19:34;;;;;;;342.25;320.02;;;25.90;90.10;;;;;;5074131;28;20123;-61
2022/08/02 12:22:18;;;;;;;337.80;317.80;;;25.70;88.40;;;;;;5072797;28;20887;-61
2022/08/02 12:24:47;;;;;;;391.17;363.17;;;25.70;91.20;;;;;;5073422;28;20091;-61
2022/08/02 12:27:30;;;;;;;326.38;307.50;;;25.70;90.10;;;;;;5073773;28;20048;-61
2022/08/02 12:30:00;;;;;;;407.42;378.90;;;25.80;91.00;;;;;;5073092;28;20095;-60
2022/08/02 12:32:26;;;;;;;325.60;308.23;;;25.80;91.00;;;;;;5073093;28;20122;-61
2022/08/02 12:35:11;;;;;;;446.63;417.73;;;25.60;91.40;;;;;;5073830;28;20458;-61
2022/08/02 12:37:40;;;;;;;252.30;239.13;;;25.70;91.00;;;;;;5073054;28;20049;-61